sensor_id;sensor_type;location;lat;lon;timestamp;P1;durP1;ratioP1;P2;durP2;ratioP2
69856;SDS011;57147;53.582;10.112;2022-12-18T00:02:23;23.98;;;12.80;;
69856;SDS011;57147;53.582;10.112;2022-12-18T00:07:24;23.33;;;13.55;;
69856;SDS011;57147;53.582;10.112;2022-12-18T00:12:25;22.17;;;12.00;;
69856;SDS011;57147;53.582;10.112;2022-12-18T00:17:28;21.40;;;12.05;;
69856;SDS011;57147;53.582;10.112;2022-12-18T00:22:28;20.45;;;12.98;;
69856;SDS011;57147;53.582;10.112;2022-12-18T00:27:29;19.35;;;11.93;;
69856;SDS011;57147;53.582;10.112;2022-12-18T00:32:32;21.92;;;11.40;;
69856;SDS011;57147;53.582;10.112;2022-12-18T00:37:33;21.05;;;12.20;;
69856;SDS011;57147;53.582;10.112;2022-12-18T00:42:34;21.38;;;12.90;;
69856;SDS011;57147;53.582;10.112;2022-12-18T00:47:37;19.33;;;10.82;;
69856;SDS011;57147;53.582;10.112;2022-12-18T00:52:40;22.88;;;13.02;;
69856;SDS011;57147;53.582;10.112;2022-12-18T00:57:40;20.63;;;12.07;;
69856;SDS011;57147;53.582;10.112;2022-12-18T01:02:44;16.88;;;11.88;;
69856;SDS011;57147;53.582;10.112;2022-12-18T01:07:44;19.30;;;11.20;;
69856;SDS011;57147;53.582;10.112;2022-12-18T01:12:45;21.65;;;11.48;;
69856;SDS011;57147;53.582;10.112;2022-12-18T01:17:48;19.77;;;10.80;;
69856;SDS011;57147;53.582;10.112;2022-12-18T01:22:49;20.48;;;11.55;;
69856;SDS011;57147;53.582;10.112;2022-12-18T01:27:49;20.50;;;10.57;;
69856;SDS011;57147;53.582;10.112;2022-12-18T01:32:52;20.98;;;11.30;;
69856;SDS011;57147;53.582;10.112;2022-12-18T01:37:53;21.20;;;11.20;;
69856;SDS011;57147;53.582;10.112;2022-12-18T01:42:54;18.80;;;11.20;;
69856;SDS011;57147;53.582;10.112;2022-12-18T01:47:57;15.23;;;9.40;;
69856;SDS011;57147;53.582;10.112;2022-12-18T01:53:02;18.52;;;10.75;;
69856;SDS011;57147;53.582;10.112;2022-12-18T01:58:05;20.08;;;10.73;;
69856;SDS011;57147;53.582;10.112;2022-12-18T02:03:08;15.43;;;9.55;;
69856;SDS011;57147;53.582;10.112;2022-12-18T02:08:10;16.02;;;9.18;;
69856;SDS011;57147;53.582;10.112;2022-12-18T02:13:14;18.27;;;10.40;;
69856;SDS011;57147;53.582;10.112;2022-12-18T02:23:29;15.43;;;9.60;;
69856;SDS011;57147;53.582;10.112;2022-12-18T02:28:45;16.40;;;9.15;;
69856;SDS011;57147;53.582;10.112;2022-12-18T02:33:49;16.00;;;10.10;;
69856;SDS011;57147;53.582;10.112;2022-12-18T02:38:51;17.70;;;10.55;;
69856;SDS011;57147;53.582;10.112;2022-12-18T02:43:57;15.77;;;8.57;;
69856;SDS011;57147;53.582;10.112;2022-12-18T02:49:01;17.55;;;12.30;;
69856;SDS011;57147;53.582;10.112;2022-12-18T02:54:09;16.73;;;10.85;;
69856;SDS011;57147;53.582;10.112;2022-12-18T02:59:17;14.43;;;9.93;;
69856;SDS011;57147;53.582;10.112;2022-12-18T03:04:23;14.38;;;8.55;;
69856;SDS011;57147;53.582;10.112;2022-12-18T03:09:27;16.67;;;9.52;;
69856;SDS011;57147;53.582;10.112;2022-12-18T03:14:35;15.60;;;9.30;;
69856;SDS011;57147;53.582;10.112;2022-12-18T03:19:38;17.98;;;8.93;;
69856;SDS011;57147;53.582;10.112;2022-12-18T03:24:40;15.60;;;10.48;;
69856;SDS011;57147;53.582;10.112;2022-12-18T03:29:45;16.27;;;8.95;;
69856;SDS011;57147;53.582;10.112;2022-12-18T03:39:50;16.13;;;8.38;;
69856;SDS011;57147;53.582;10.112;2022-12-18T03:44:54;13.43;;;8.93;;
69856;SDS011;57147;53.582;10.112;2022-12-18T03:50:03;13.63;;;8.77;;
69856;SDS011;57147;53.582;10.112;2022-12-18T03:55:10;13.43;;;8.80;;
69856;SDS011;57147;53.582;10.112;2022-12-18T04:00:15;14.80;;;8.88;;
69856;SDS011;57147;53.582;10.112;2022-12-18T04:05:18;14.55;;;9.10;;
69856;SDS011;57147;53.582;10.112;2022-12-18T04:10:20;16.05;;;9.63;;
69856;SDS011;57147;53.582;10.112;2022-12-18T04:15:23;15.52;;;8.95;;
69856;SDS011;57147;53.582;10.112;2022-12-18T04:20:24;15.90;;;9.88;;
69856;SDS011;57147;53.582;10.112;2022-12-18T04:25:25;13.48;;;8.55;;
69856;SDS011;57147;53.582;10.112;2022-12-18T04:30:28;13.75;;;9.68;;
69856;SDS011;57147;53.582;10.112;2022-12-18T04:35:29;14.75;;;9.02;;
69856;SDS011;57147;53.582;10.112;2022-12-18T04:40:29;17.67;;;9.52;;
69856;SDS011;57147;53.582;10.112;2022-12-18T04:45:32;18.05;;;10.93;;
69856;SDS011;57147;53.582;10.112;2022-12-18T04:50:33;15.98;;;9.80;;
69856;SDS011;57147;53.582;10.112;2022-12-18T04:55:34;17.80;;;9.40;;
69856;SDS011;57147;53.582;10.112;2022-12-18T05:00:37;17.27;;;8.23;;
69856;SDS011;57147;53.582;10.112;2022-12-18T05:05:37;14.80;;;9.52;;
69856;SDS011;57147;53.582;10.112;2022-12-18T05:10:38;17.45;;;9.23;;
69856;SDS011;57147;53.582;10.112;2022-12-18T05:15:41;16.08;;;10.82;;
69856;SDS011;57147;53.582;10.112;2022-12-18T05:20:41;17.17;;;10.20;;
69856;SDS011;57147;53.582;10.112;2022-12-18T05:25:42;16.67;;;11.05;;
69856;SDS011;57147;53.582;10.112;2022-12-18T05:30:50;17.67;;;10.38;;
69856;SDS011;57147;53.582;10.112;2022-12-18T05:35:52;18.42;;;12.02;;
69856;SDS011;57147;53.582;10.112;2022-12-18T05:40:53;14.77;;;8.70;;
69856;SDS011;57147;53.582;10.112;2022-12-18T05:45:56;15.98;;;9.63;;
69856;SDS011;57147;53.582;10.112;2022-12-18T05:51:02;15.68;;;10.00;;
69856;SDS011;57147;53.582;10.112;2022-12-18T05:56:05;19.60;;;10.77;;
69856;SDS011;57147;53.582;10.112;2022-12-18T06:01:11;16.77;;;9.02;;
69856;SDS011;57147;53.582;10.112;2022-12-18T06:06:14;15.15;;;9.57;;
69856;SDS011;57147;53.582;10.112;2022-12-18T06:11:17;16.42;;;10.52;;
69856;SDS011;57147;53.582;10.112;2022-12-18T06:16:21;16.52;;;8.77;;
69856;SDS011;57147;53.582;10.112;2022-12-18T06:21:22;17.95;;;9.93;;
69856;SDS011;57147;53.582;10.112;2022-12-18T06:26:23;16.08;;;9.98;;
69856;SDS011;57147;53.582;10.112;2022-12-18T06:31:26;16.05;;;9.65;;
69856;SDS011;57147;53.582;10.112;2022-12-18T06:36:30;18.02;;;10.65;;
69856;SDS011;57147;53.582;10.112;2022-12-18T06:41:31;20.30;;;8.85;;
69856;SDS011;57147;53.582;10.112;2022-12-18T06:46:34;20.17;;;11.25;;
69856;SDS011;57147;53.582;10.112;2022-12-18T06:51:34;20.95;;;10.27;;
69856;SDS011;57147;53.582;10.112;2022-12-18T06:56:35;18.92;;;9.52;;
69856;SDS011;57147;53.582;10.112;2022-12-18T07:01:38;19.88;;;11.32;;
69856;SDS011;57147;53.582;10.112;2022-12-18T07:06:39;17.90;;;10.77;;
69856;SDS011;57147;53.582;10.112;2022-12-18T07:11:40;17.73;;;10.52;;
69856;SDS011;57147;53.582;10.112;2022-12-18T07:16:43;18.52;;;9.20;;
69856;SDS011;57147;53.582;10.112;2022-12-18T07:21:43;17.83;;;10.95;;
69856;SDS011;57147;53.582;10.112;2022-12-18T07:26:45;19.40;;;10.48;;
69856;SDS011;57147;53.582;10.112;2022-12-18T07:31:48;18.00;;;9.88;;
69856;SDS011;57147;53.582;10.112;2022-12-18T07:36:49;17.95;;;11.10;;
69856;SDS011;57147;53.582;10.112;2022-12-18T07:41:49;20.80;;;10.48;;
69856;SDS011;57147;53.582;10.112;2022-12-18T07:46:52;21.42;;;10.38;;
69856;SDS011;57147;53.582;10.112;2022-12-18T07:51:53;19.85;;;10.45;;
69856;SDS011;57147;53.582;10.112;2022-12-18T07:56:54;18.45;;;10.95;;
69856;SDS011;57147;53.582;10.112;2022-12-18T08:01:58;19.48;;;11.05;;
69856;SDS011;57147;53.582;10.112;2022-12-18T08:06:58;16.85;;;10.35;;
69856;SDS011;57147;53.582;10.112;2022-12-18T08:11:59;18.90;;;11.30;;
69856;SDS011;57147;53.582;10.112;2022-12-18T08:17:02;17.33;;;10.07;;
69856;SDS011;57147;53.582;10.112;2022-12-18T08:22:03;18.15;;;12.10;;
69856;SDS011;57147;53.582;10.112;2022-12-18T08:27:03;20.02;;;11.27;;
69856;SDS011;57147;53.582;10.112;2022-12-18T08:32:06;16.55;;;9.93;;
69856;SDS011;57147;53.582;10.112;2022-12-18T08:37:07;20.88;;;10.55;;
69856;SDS011;57147;53.582;10.112;2022-12-18T08:42:08;19.27;;;10.40;;
69856;SDS011;57147;53.582;10.112;2022-12-18T08:47:12;17.38;;;9.52;;
69856;SDS011;57147;53.582;10.112;2022-12-18T08:52:15;18.90;;;10.80;;
69856;SDS011;57147;53.582;10.112;2022-12-18T08:57:16;16.60;;;9.45;;
69856;SDS011;57147;53.582;10.112;2022-12-18T09:02:19;15.35;;;9.35;;
69856;SDS011;57147;53.582;10.112;2022-12-18T09:07:20;17.30;;;10.18;;
69856;SDS011;57147;53.582;10.112;2022-12-18T09:12:21;18.60;;;9.75;;
69856;SDS011;57147;53.582;10.112;2022-12-18T09:17:24;17.75;;;9.10;;
69856;SDS011;57147;53.582;10.112;2022-12-18T09:22:25;15.07;;;7.93;;
69856;SDS011;57147;53.582;10.112;2022-12-18T09:27:26;19.00;;;10.98;;
69856;SDS011;57147;53.582;10.112;2022-12-18T09:32:29;15.80;;;9.77;;
69856;SDS011;57147;53.582;10.112;2022-12-18T09:37:30;18.85;;;10.18;;
69856;SDS011;57147;53.582;10.112;2022-12-18T09:42:30;15.68;;;9.57;;
69856;SDS011;57147;53.582;10.112;2022-12-18T09:47:35;16.75;;;9.45;;
69856;SDS011;57147;53.582;10.112;2022-12-18T09:52:39;18.38;;;10.05;;
69856;SDS011;57147;53.582;10.112;2022-12-18T09:57:45;16.80;;;8.75;;
69856;SDS011;57147;53.582;10.112;2022-12-18T10:02:53;19.50;;;10.18;;
69856;SDS011;57147;53.582;10.112;2022-12-18T10:08:00;19.73;;;9.52;;
69856;SDS011;57147;53.582;10.112;2022-12-18T10:13:08;18.67;;;10.45;;
69856;SDS011;57147;53.582;10.112;2022-12-18T10:18:21;17.17;;;9.38;;
69856;SDS011;57147;53.582;10.112;2022-12-18T10:23:33;15.27;;;9.45;;
69856;SDS011;57147;53.582;10.112;2022-12-18T10:28:43;18.02;;;9.90;;
69856;SDS011;57147;53.582;10.112;2022-12-18T10:33:46;15.80;;;10.52;;
69856;SDS011;57147;53.582;10.112;2022-12-18T10:38:47;17.50;;;9.63;;
69856;SDS011;57147;53.582;10.112;2022-12-18T10:43:47;20.00;;;10.20;;
69856;SDS011;57147;53.582;10.112;2022-12-18T10:48:54;16.67;;;10.68;;
69856;SDS011;57147;53.582;10.112;2022-12-18T10:53:57;17.35;;;9.35;;
69856;SDS011;57147;53.582;10.112;2022-12-18T10:59:01;14.57;;;8.80;;
69856;SDS011;57147;53.582;10.112;2022-12-18T11:04:13;15.88;;;9.00;;
69856;SDS011;57147;53.582;10.112;2022-12-18T11:09:18;18.67;;;8.93;;
69856;SDS011;57147;53.582;10.112;2022-12-18T11:14:21;17.13;;;9.77;;
69856;SDS011;57147;53.582;10.112;2022-12-18T11:19:31;13.20;;;7.45;;
69856;SDS011;57147;53.582;10.112;2022-12-18T11:24:34;19.27;;;11.75;;
69856;SDS011;57147;53.582;10.112;2022-12-18T11:29:37;17.38;;;10.77;;
69856;SDS011;57147;53.582;10.112;2022-12-18T11:34:41;19.67;;;10.23;;
69856;SDS011;57147;53.582;10.112;2022-12-18T11:39:46;16.05;;;9.77;;
69856;SDS011;57147;53.582;10.112;2022-12-18T11:44:52;18.17;;;10.88;;
69856;SDS011;57147;53.582;10.112;2022-12-18T11:50:02;14.88;;;8.75;;
69856;SDS011;57147;53.582;10.112;2022-12-18T11:55:10;18.33;;;9.68;;
69856;SDS011;57147;53.582;10.112;2022-12-18T12:00:13;16.95;;;8.70;;
69856;SDS011;57147;53.582;10.112;2022-12-18T12:05:28;15.63;;;9.50;;
69856;SDS011;57147;53.582;10.112;2022-12-18T12:10:39;17.25;;;9.77;;
69856;SDS011;57147;53.582;10.112;2022-12-18T12:15:45;16.40;;;9.77;;
69856;SDS011;57147;53.582;10.112;2022-12-18T12:20:59;17.10;;;9.15;;
69856;SDS011;57147;53.582;10.112;2022-12-18T12:26:04;17.02;;;10.05;;
69856;SDS011;57147;53.582;10.112;2022-12-18T12:31:08;19.35;;;9.73;;
69856;SDS011;57147;53.582;10.112;2022-12-18T12:36:22;20.70;;;10.73;;
69856;SDS011;57147;53.582;10.112;2022-12-18T12:46:35;18.17;;;8.45;;
69856;SDS011;57147;53.582;10.112;2022-12-18T12:51:43;19.35;;;10.00;;
69856;SDS011;57147;53.582;10.112;2022-12-18T12:56:48;21.38;;;10.40;;
69856;SDS011;57147;53.582;10.112;2022-12-18T13:01:56;18.65;;;10.68;;
69856;SDS011;57147;53.582;10.112;2022-12-18T13:07:06;22.35;;;10.82;;
69856;SDS011;57147;53.582;10.112;2022-12-18T13:12:16;19.80;;;10.15;;
69856;SDS011;57147;53.582;10.112;2022-12-18T13:17:27;21.38;;;10.35;;
69856;SDS011;57147;53.582;10.112;2022-12-18T13:27:53;19.90;;;10.43;;
69856;SDS011;57147;53.582;10.112;2022-12-18T13:38:35;21.08;;;10.68;;
69856;SDS011;57147;53.582;10.112;2022-12-18T13:43:39;19.88;;;9.40;;
69856;SDS011;57147;53.582;10.112;2022-12-18T13:48:47;19.75;;;10.63;;
69856;SDS011;57147;53.582;10.112;2022-12-18T13:53:53;20.92;;;10.75;;
69856;SDS011;57147;53.582;10.112;2022-12-18T14:04:18;19.95;;;9.07;;
69856;SDS011;57147;53.582;10.112;2022-12-18T14:09:23;23.73;;;10.90;;
69856;SDS011;57147;53.582;10.112;2022-12-18T14:14:26;24.20;;;11.02;;
69856;SDS011;57147;53.582;10.112;2022-12-18T14:19:27;23.58;;;11.95;;
69856;SDS011;57147;53.582;10.112;2022-12-18T14:24:30;23.67;;;10.80;;
69856;SDS011;57147;53.582;10.112;2022-12-18T14:29:34;24.63;;;11.65;;
69856;SDS011;57147;53.582;10.112;2022-12-18T14:34:35;26.45;;;13.55;;
69856;SDS011;57147;53.582;10.112;2022-12-18T14:39:38;25.58;;;12.27;;
69856;SDS011;57147;53.582;10.112;2022-12-18T14:44:38;27.27;;;11.88;;
69856;SDS011;57147;53.582;10.112;2022-12-18T14:49:39;27.15;;;11.98;;
69856;SDS011;57147;53.582;10.112;2022-12-18T14:54:45;28.85;;;12.02;;
69856;SDS011;57147;53.582;10.112;2022-12-18T14:59:47;29.35;;;13.23;;
69856;SDS011;57147;53.582;10.112;2022-12-18T15:04:48;28.25;;;13.35;;
69856;SDS011;57147;53.582;10.112;2022-12-18T15:10:08;27.17;;;12.02;;
69856;SDS011;57147;53.582;10.112;2022-12-18T15:20:51;26.20;;;13.48;;
69856;SDS011;57147;53.582;10.112;2022-12-18T15:25:58;27.13;;;14.30;;
69856;SDS011;57147;53.582;10.112;2022-12-18T15:31:01;29.92;;;13.52;;
69856;SDS011;57147;53.582;10.112;2022-12-18T15:36:05;28.35;;;12.15;;
69856;SDS011;57147;53.582;10.112;2022-12-18T15:41:13;24.15;;;11.65;;
69856;SDS011;57147;53.582;10.112;2022-12-18T15:46:15;24.60;;;12.15;;
69856;SDS011;57147;53.582;10.112;2022-12-18T15:51:18;28.85;;;13.75;;
69856;SDS011;57147;53.582;10.112;2022-12-18T15:56:23;26.80;;;12.52;;
69856;SDS011;57147;53.582;10.112;2022-12-18T16:01:24;28.90;;;13.07;;
69856;SDS011;57147;53.582;10.112;2022-12-18T16:06:26;30.13;;;13.60;;
69856;SDS011;57147;53.582;10.112;2022-12-18T16:11:31;34.58;;;16.23;;
69856;SDS011;57147;53.582;10.112;2022-12-18T16:16:33;28.70;;;12.55;;
69856;SDS011;57147;53.582;10.112;2022-12-18T16:21:33;32.40;;;13.73;;
69856;SDS011;57147;53.582;10.112;2022-12-18T16:26:36;32.88;;;14.98;;
69856;SDS011;57147;53.582;10.112;2022-12-18T16:31:37;29.02;;;12.20;;
69856;SDS011;57147;53.582;10.112;2022-12-18T16:36:38;31.58;;;13.02;;
69856;SDS011;57147;53.582;10.112;2022-12-18T16:41:41;31.33;;;14.75;;
69856;SDS011;57147;53.582;10.112;2022-12-18T16:46:42;32.13;;;15.65;;
69856;SDS011;57147;53.582;10.112;2022-12-18T16:51:43;32.42;;;15.18;;
69856;SDS011;57147;53.582;10.112;2022-12-18T16:56:48;29.73;;;14.02;;
69856;SDS011;57147;53.582;10.112;2022-12-18T17:01:50;27.27;;;12.52;;
69856;SDS011;57147;53.582;10.112;2022-12-18T17:06:52;29.77;;;14.00;;
69856;SDS011;57147;53.582;10.112;2022-12-18T17:11:55;33.53;;;15.48;;
69856;SDS011;57147;53.582;10.112;2022-12-18T17:16:56;29.77;;;14.43;;
69856;SDS011;57147;53.582;10.112;2022-12-18T17:21:56;32.20;;;13.93;;
69856;SDS011;57147;53.582;10.112;2022-12-18T17:26:59;27.27;;;13.75;;
69856;SDS011;57147;53.582;10.112;2022-12-18T17:32:00;25.45;;;13.23;;
69856;SDS011;57147;53.582;10.112;2022-12-18T17:37:01;26.02;;;13.23;;
69856;SDS011;57147;53.582;10.112;2022-12-18T17:42:04;26.63;;;13.35;;
69856;SDS011;57147;53.582;10.112;2022-12-18T17:47:04;23.38;;;12.48;;
69856;SDS011;57147;53.582;10.112;2022-12-18T17:52:05;25.50;;;12.68;;
69856;SDS011;57147;53.582;10.112;2022-12-18T17:57:08;20.88;;;10.85;;
69856;SDS011;57147;53.582;10.112;2022-12-18T18:02:09;25.33;;;10.88;;
69856;SDS011;57147;53.582;10.112;2022-12-18T18:07:10;24.80;;;11.43;;
69856;SDS011;57147;53.582;10.112;2022-12-18T18:12:14;20.30;;;13.40;;
69856;SDS011;57147;53.582;10.112;2022-12-18T18:17:14;23.23;;;11.80;;
69856;SDS011;57147;53.582;10.112;2022-12-18T18:22:15;19.70;;;10.57;;
69856;SDS011;57147;53.582;10.112;2022-12-18T18:27:18;20.52;;;11.30;;
69856;SDS011;57147;53.582;10.112;2022-12-18T18:32:20;18.35;;;8.98;;
69856;SDS011;57147;53.582;10.112;2022-12-18T18:37:20;20.70;;;11.45;;
69856;SDS011;57147;53.582;10.112;2022-12-18T18:42:24;21.38;;;11.02;;
69856;SDS011;57147;53.582;10.112;2022-12-18T18:47:24;16.67;;;8.93;;
69856;SDS011;57147;53.582;10.112;2022-12-18T18:52:25;19.00;;;10.70;;
69856;SDS011;57147;53.582;10.112;2022-12-18T18:57:28;20.42;;;10.18;;
69856;SDS011;57147;53.582;10.112;2022-12-18T19:02:28;18.02;;;8.80;;
69856;SDS011;57147;53.582;10.112;2022-12-18T19:07:29;18.25;;;8.88;;
69856;SDS011;57147;53.582;10.112;2022-12-18T19:12:32;18.42;;;10.23;;
69856;SDS011;57147;53.582;10.112;2022-12-18T19:17:33;18.08;;;9.90;;
69856;SDS011;57147;53.582;10.112;2022-12-18T19:22:35;16.35;;;8.75;;
69856;SDS011;57147;53.582;10.112;2022-12-18T19:27:38;16.05;;;8.45;;
69856;SDS011;57147;53.582;10.112;2022-12-18T19:32:39;18.67;;;9.05;;
69856;SDS011;57147;53.582;10.112;2022-12-18T19:37:39;19.27;;;12.30;;
69856;SDS011;57147;53.582;10.112;2022-12-18T19:42:43;19.08;;;11.25;;
69856;SDS011;57147;53.582;10.112;2022-12-18T19:47:43;19.33;;;10.48;;
69856;SDS011;57147;53.582;10.112;2022-12-18T19:52:44;20.33;;;11.98;;
69856;SDS011;57147;53.582;10.112;2022-12-18T19:57:48;22.90;;;11.77;;
69856;SDS011;57147;53.582;10.112;2022-12-18T20:02:48;21.10;;;11.40;;
69856;SDS011;57147;53.582;10.112;2022-12-18T20:07:49;21.92;;;11.13;;
69856;SDS011;57147;53.582;10.112;2022-12-18T20:12:52;22.80;;;12.45;;
69856;SDS011;57147;53.582;10.112;2022-12-18T20:17:53;20.98;;;10.57;;
69856;SDS011;57147;53.582;10.112;2022-12-18T20:22:54;22.65;;;12.88;;
69856;SDS011;57147;53.582;10.112;2022-12-18T20:27:57;21.15;;;11.35;;
69856;SDS011;57147;53.582;10.112;2022-12-18T20:32:57;23.05;;;10.55;;
69856;SDS011;57147;53.582;10.112;2022-12-18T20:37:58;28.65;;;13.95;;
69856;SDS011;57147;53.582;10.112;2022-12-18T20:43:01;22.73;;;12.85;;
69856;SDS011;57147;53.582;10.112;2022-12-18T20:48:02;24.83;;;12.35;;
69856;SDS011;57147;53.582;10.112;2022-12-18T20:53:02;24.52;;;14.07;;
69856;SDS011;57147;53.582;10.112;2022-12-18T20:58:07;22.98;;;10.15;;
69856;SDS011;57147;53.582;10.112;2022-12-18T21:03:08;22.00;;;12.15;;
69856;SDS011;57147;53.582;10.112;2022-12-18T21:08:09;22.13;;;10.40;;
69856;SDS011;57147;53.582;10.112;2022-12-18T21:13:13;22.77;;;13.40;;
69856;SDS011;57147;53.582;10.112;2022-12-18T21:18:13;22.02;;;12.00;;
69856;SDS011;57147;53.582;10.112;2022-12-18T21:23:14;23.58;;;11.07;;
69856;SDS011;57147;53.582;10.112;2022-12-18T21:28:17;25.92;;;13.38;;
69856;SDS011;57147;53.582;10.112;2022-12-18T21:33:17;22.95;;;10.93;;
69856;SDS011;57147;53.582;10.112;2022-12-18T21:38:18;25.15;;;12.38;;
69856;SDS011;57147;53.582;10.112;2022-12-18T21:43:21;23.50;;;12.73;;
69856;SDS011;57147;53.582;10.112;2022-12-18T21:48:22;24.77;;;12.65;;
69856;SDS011;57147;53.582;10.112;2022-12-18T21:53:22;24.10;;;13.15;;
69856;SDS011;57147;53.582;10.112;2022-12-18T21:58:26;24.23;;;12.18;;
69856;SDS011;57147;53.582;10.112;2022-12-18T22:03:27;23.65;;;12.85;;
69856;SDS011;57147;53.582;10.112;2022-12-18T22:08:27;23.92;;;11.60;;
69856;SDS011;57147;53.582;10.112;2022-12-18T22:13:30;22.50;;;11.43;;
69856;SDS011;57147;53.582;10.112;2022-12-18T22:18:31;25.17;;;12.88;;
69856;SDS011;57147;53.582;10.112;2022-12-18T22:23:32;24.00;;;11.82;;
69856;SDS011;57147;53.582;10.112;2022-12-18T22:28:35;25.17;;;12.95;;
69856;SDS011;57147;53.582;10.112;2022-12-18T22:33:37;23.02;;;11.55;;
69856;SDS011;57147;53.582;10.112;2022-12-18T22:38:37;24.75;;;11.32;;
69856;SDS011;57147;53.582;10.112;2022-12-18T22:43:40;25.65;;;11.95;;
69856;SDS011;57147;53.582;10.112;2022-12-18T22:48:41;26.73;;;12.70;;
69856;SDS011;57147;53.582;10.112;2022-12-18T22:53:42;22.55;;;12.05;;
69856;SDS011;57147;53.582;10.112;2022-12-18T22:58:48;25.17;;;11.98;;
69856;SDS011;57147;53.582;10.112;2022-12-18T23:03:50;25.33;;;12.82;;
69856;SDS011;57147;53.582;10.112;2022-12-18T23:08:51;22.00;;;10.93;;
69856;SDS011;57147;53.582;10.112;2022-12-18T23:13:56;28.45;;;11.90;;
69856;SDS011;57147;53.582;10.112;2022-12-18T23:18:56;25.42;;;12.80;;
69856;SDS011;57147;53.582;10.112;2022-12-18T23:23:57;25.13;;;12.10;;
69856;SDS011;57147;53.582;10.112;2022-12-18T23:29:01;23.55;;;11.35;;
69856;SDS011;57147;53.582;10.112;2022-12-18T23:34:03;24.05;;;12.75;;
69856;SDS011;57147;53.582;10.112;2022-12-18T23:39:04;25.52;;;11.57;;
69856;SDS011;57147;53.582;10.112;2022-12-18T23:44:07;22.65;;;11.55;;
69856;SDS011;57147;53.582;10.112;2022-12-18T23:49:09;25.00;;;11.93;;
69856;SDS011;57147;53.582;10.112;2022-12-18T23:54:09;23.20;;;12.20;;
69856;SDS011;57147;53.582;10.112;2022-12-18T23:59:13;23.33;;;11.77;;
